Time;durP1;ratioP1;P1;durP2;ratioP2;P2;SDS_P1;SDS_P2;PMS_P1;PMS_P2;Temp;Humidity;BMP_temperature;BMP_pressure;BME280_temperature;BME280_humidity;BME280_pressure;Samples;Min_cycle;Max_cycle;Signal;HPM_P1;HPM_P2
2022/11/22 00:00:57;;;;;;;6.37;2.37;;;;;;;19.67;56.27;98280.09;5070315;28;20228;-64
2022/11/22 00:03:22;;;;;;;8.57;2.70;;;;;;;19.64;56.39;98271.56;5070711;28;20178;-65
2022/11/22 00:05:48;;;;;;;7.40;2.17;;;;;;;19.64;56.44;98280.97;5088605;28;20226;-65
2022/11/22 00:08:13;;;;;;;7.03;2.13;;;;;;;19.63;56.62;98290.81;5087068;28;20201;-65
2022/11/22 00:10:39;;;;;;;4.97;1.77;;;;;;;19.62;56.59;98300.63;5088979;28;20174;-65
2022/11/22 00:13:04;;;;;;;5.77;2.30;;;;;;;19.64;56.59;98294.47;5076023;28;20194;-65
2022/11/22 00:15:30;;;;;;;5.53;2.13;;;;;;;19.75;56.45;98306.53;5048735;28;20193;-65
2022/11/22 00:17:55;;;;;;;7.00;2.40;;;;;;;19.78;56.39;98314.25;5070897;28;20190;-66
2022/11/22 00:20:20;;;;;;;7.23;2.27;;;;;;;19.67;56.70;98303.00;5089258;28;20186;-66
2022/11/22 00:22:46;;;;;;;8.83;2.50;;;;;;;19.58;57.16;98307.66;5036880;28;20689;-65
2022/11/22 00:25:12;;;;;;;5.20;2.33;;;;;;;19.65;56.71;98304.66;5070956;28;20720;-65
2022/11/22 00:27:37;;;;;;;7.23;2.40;;;;;;;19.69;56.58;98311.97;5088152;28;20167;-65
2022/11/22 00:30:03;;;;;;;9.57;2.50;;;;;;;19.83;56.18;98297.38;5051653;28;20175;-65
2022/11/22 00:32:29;;;;;;;5.17;2.30;;;;;;;19.82;56.44;98306.41;5070525;28;20249;-65
2022/11/22 00:34:54;;;;;;;5.67;2.60;;;;;;;19.85;56.38;98312.06;5089664;28;20427;-66
2022/11/22 00:37:19;;;;;;;8.50;2.27;;;;;;;19.80;56.56;98324.03;5072750;28;20239;-65
2022/11/22 00:39:45;;;;;;;6.20;2.17;;;;;;;19.69;56.53;98320.56;5084482;28;20677;-65
2022/11/22 00:42:10;;;;;;;5.97;2.30;;;;;;;19.55;56.34;98312.22;5076816;28;20551;-65
2022/11/22 00:44:36;;;;;;;8.60;2.50;;;;;;;19.42;56.24;98322.66;5078929;28;20696;-65
2022/11/22 00:47:01;;;;;;;6.73;1.90;;;;;;;19.40;55.96;98324.34;5098536;28;20626;-65
2022/11/22 00:49:27;;;;;;;6.63;2.10;;;;;;;19.50;55.72;98323.34;5046170;28;20177;-66
2022/11/22 00:51:52;;;;;;;6.80;2.10;;;;;;;19.48;56.18;98314.41;5097544;28;20179;-66
2022/11/22 00:54:17;;;;;;;7.00;2.33;;;;;;;19.42;56.11;98308.34;5097780;28;20210;-65
2022/11/22 00:56:43;;;;;;;11.77;3.23;;;;;;;19.41;56.35;98321.03;5097538;28;20181;-65
2022/11/22 00:59:08;;;;;;;6.33;2.30;;;;;;;19.41;56.57;98326.75;5078230;28;20584;-65
2022/11/22 01:01:34;;;;;;;4.10;1.73;;;;;;;19.36;56.79;98329.31;5078965;28;20194;-65
2022/11/22 01:03:59;;;;;;;7.10;2.20;;;;;;;19.35;56.69;98331.38;5086889;28;20214;-65
2022/11/22 01:06:25;;;;;;;6.40;2.43;;;;;;;19.34;56.82;98335.47;5090028;28;20197;-65
2022/11/22 01:08:50;;;;;;;4.93;1.70;;;;;;;19.32;57.10;98337.94;5079069;28;20220;-65
2022/11/22 01:11:16;;;;;;;4.47;1.87;;;;;;;19.31;57.15;98347.78;5078781;28;20205;-66
2022/11/22 01:13:42;;;;;;;3.70;1.97;;;;;;;19.30;57.25;98349.03;5097343;28;20599;-65
2022/11/22 01:16:08;;;;;;;3.70;1.60;;;;;;;19.30;57.41;98356.78;5061903;28;20408;-65
2022/11/22 01:18:33;;;;;;;5.97;2.50;;;;;;;19.33;57.18;98351.03;5078635;28;20632;-66
2022/11/22 01:20:59;;;;;;;5.80;2.00;;;;;;;19.30;57.52;98351.88;5078674;28;20190;-65
2022/11/22 01:23:24;;;;;;;3.33;1.80;;;;;;;19.34;57.29;98361.22;5085434;28;20225;-65
2022/11/22 01:25:50;;;;;;;6.90;1.80;;;;;;;19.31;57.65;98359.22;5075456;28;20183;-65
2022/11/22 01:28:15;;;;;;;9.40;2.00;;;;;;;19.31;57.58;98364.16;5075290;28;20186;-66
2022/11/22 01:30:41;;;;;;;6.57;1.70;;;;;;;19.30;57.56;98377.63;5074177;28;20190;-66
2022/11/22 01:33:06;;;;;;;3.90;1.90;;;;;;;19.32;57.60;98383.72;5076092;28;20221;-65
2022/11/22 01:35:32;;;;;;;9.83;1.87;;;;;;;19.33;57.64;98378.81;5080814;28;20183;-65
2022/11/22 01:37:57;;;;;;;4.77;1.83;;;;;;;19.31;57.70;98384.97;5095958;28;20553;-65
2022/11/22 01:40:23;;;;;;;4.43;1.97;;;;;;;19.30;57.89;98389.09;5095438;28;20186;-65
2022/11/22 01:42:53;;;;;;;4.20;1.60;;;;;;;19.29;57.87;98398.91;5096014;28;20190;-65
2022/11/22 01:45:28;;;;;;;4.77;1.87;;;;;;;19.28;57.96;98393.63;5073543;28;20211;-66
2022/11/22 01:47:55;;;;;;;4.87;2.07;;;;;;;19.28;57.89;98387.91;5076367;28;20397;-66
2022/11/22 01:50:21;;;;;;;5.93;1.97;;;;;;;19.28;57.93;98391.59;5074828;28;20418;-65
2022/11/22 01:52:46;;;;;;;3.10;1.53;;;;;;;19.28;58.01;98390.75;5075745;28;20406;-65
2022/11/22 01:55:12;;;;;;;4.90;1.90;;;;;;;19.30;58.24;98394.00;5096293;28;20649;-65
2022/11/22 01:57:38;;;;;;;6.27;2.20;;;;;;;19.24;58.13;98402.25;5096606;28;20257;-65
2022/11/22 02:00:37;;;;;;;4.80;1.87;;;;;;;19.25;58.22;98392.44;5078285;28;20287;-65
2022/11/22 02:03:03;;;;;;;4.07;1.87;;;;;;;19.26;58.26;98387.53;5086277;28;20198;-66
2022/11/22 02:05:30;;;;;;;2.70;1.43;;;;;;;19.24;58.40;98402.25;5100232;28;20452;-66
2022/11/22 02:08:07;;;;;;;4.10;1.57;;;;;;;19.25;58.40;98403.88;5065488;28;20181;-66
2022/11/22 02:10:34;;;;;;;6.60;1.90;;;;;;;19.23;58.51;98400.66;5066226;28;20396;-66
2022/11/22 02:12:59;;;;;;;4.90;1.83;;;;;;;19.23;58.36;98414.13;5065627;28;20427;-66
2022/11/22 02:15:25;;;;;;;4.10;1.70;;;;;;;19.19;58.69;98408.44;5082232;28;20417;-66
2022/11/22 02:17:50;;;;;;;3.93;1.60;;;;;;;19.23;58.49;98411.28;5065502;28;20185;-66
2022/11/22 02:20:16;;;;;;;4.57;1.63;;;;;;;19.21;58.64;98414.53;5065248;28;20190;-66
2022/11/22 02:23:11;;;;;;;4.93;1.70;;;;;;;19.23;58.49;98417.81;5066172;28;20268;-66
2022/11/22 02:25:39;;;;;;;3.80;1.50;;;;;;;19.20;58.59;98418.63;5082058;28;20722;-66
2022/11/22 02:28:05;;;;;;;3.10;1.50;;;;;;;19.19;58.85;98428.47;5100064;28;20405;-66
2022/11/22 02:30:31;;;;;;;4.37;1.80;;;;;;;19.19;58.66;98422.75;5081201;28;20407;-66
2022/11/22 02:32:56;;;;;;;5.17;1.70;;;;;;;19.21;58.71;98431.69;5064461;28;20163;-66
2022/11/22 02:35:25;;;;;;;3.70;1.67;;;;;;;19.19;58.92;98428.47;5064113;28;20251;-66
2022/11/22 02:38:01;;;;;;;5.80;1.50;;;;;;;19.20;58.96;98426.41;5064240;28;20171;-66
2022/11/22 02:40:35;;;;;;;3.17;1.60;;;;;;;19.16;58.72;98435.03;5081200;28;20448;-66
2022/11/22 02:43:02;;;;;;;8.67;1.90;;;;;;;19.16;59.03;98431.38;5063714;28;20407;-66
2022/11/22 02:45:28;;;;;;;5.37;1.80;;;;;;;19.20;58.73;98438.66;5081397;28;20763;-66
2022/11/22 02:48:04;;;;;;;2.90;1.53;;;;;;;19.16;59.07;98446.47;5080889;28;20420;-66
2022/11/22 02:50:29;;;;;;;4.83;1.77;;;;;;;19.15;59.01;98444.88;5081423;28;20154;-66
2022/11/22 02:52:55;;;;;;;5.17;1.60;;;;;;;19.14;59.11;98443.25;5100224;28;20462;-66
2022/11/22 02:55:20;;;;;;;3.07;1.57;;;;;;;19.16;59.03;98446.47;5081759;28;20178;-66
2022/11/22 02:57:46;;;;;;;5.40;2.30;;;;;;;19.14;59.07;98448.16;5099610;28;20182;-66
2022/11/22 03:00:12;;;;;;;4.77;1.67;;;;;;;19.13;59.11;98446.53;5099094;28;20186;-66
2022/11/22 03:02:38;;;;;;;3.10;1.33;;;;;;;19.13;59.15;98446.53;5065688;28;20206;-66
2022/11/22 03:05:03;;;;;;;4.87;1.60;;;;;;;19.13;59.13;98447.34;5081110;28;20514;-66
2022/11/22 03:07:28;;;;;;;3.83;1.20;;;;;;;19.14;59.53;98453.88;5100540;28;20194;-66
2022/11/22 03:09:54;;;;;;;3.23;1.50;;;;;;;19.13;59.18;98452.25;5081183;28;20163;-66
2022/11/22 03:12:19;;;;;;;6.80;1.50;;;;;;;19.11;59.28;98455.53;5099738;28;20181;-66
2022/11/22 03:14:45;;;;;;;3.33;1.60;;;;;;;19.09;59.40;98452.31;5081358;28;20532;-66
2022/11/22 03:17:10;;;;;;;2.90;1.50;;;;;;;19.12;59.31;98457.16;5098447;28;20178;-66
2022/11/22 03:19:36;;;;;;;3.80;1.70;;;;;;;19.12;59.39;98451.44;5097275;28;20201;-66
2022/11/22 03:22:01;;;;;;;3.67;1.67;;;;;;;19.08;59.60;98453.56;5098262;28;20169;-66
2022/11/22 03:24:26;;;;;;;3.10;1.30;;;;;;;19.08;59.41;98447.84;5098877;28;20253;-66
2022/11/22 03:26:52;;;;;;;5.73;1.70;;;;;;;19.10;59.45;98444.50;5098883;28;20178;-66
2022/11/22 03:29:17;;;;;;;3.07;1.40;;;;;;;19.08;59.37;98450.69;5079895;28;20177;-66
2022/11/22 03:31:43;;;;;;;2.77;1.73;;;;;;;19.09;59.39;98449.44;5080709;28;20224;-66
2022/11/22 03:34:10;;;;;;;3.27;1.60;;;;;;;19.08;59.42;98462.13;5079756;28;20178;-66
2022/11/22 03:36:36;;;;;;;3.30;1.63;;;;;;;19.05;59.63;98453.56;5058196;28;20703;-66
2022/11/22 03:39:01;;;;;;;4.53;1.63;;;;;;;19.07;59.63;98456.84;5095927;28;20420;-66
2022/11/22 03:41:27;;;;;;;2.67;1.30;;;;;;;19.07;59.43;98457.63;5081077;28;20567;-66
2022/11/22 03:43:52;;;;;;;3.80;1.53;;;;;;;19.07;59.56;98462.56;5081022;28;20174;-66
2022/11/22 03:46:20;;;;;;;4.63;1.70;;;;;;;19.06;59.71;98466.66;5063839;28;20521;-66
2022/11/22 03:48:46;;;;;;;4.53;1.40;;;;;;;19.06;59.38;98467.44;5064720;28;20179;-66
2022/11/22 03:51:11;;;;;;;2.60;1.70;;;;;;;19.10;59.58;98465.38;5099361;28;20757;-66
2022/11/22 03:53:37;;;;;;;2.63;1.37;;;;;;;19.07;59.75;98469.06;5081065;28;20578;-66
2022/11/22 03:56:02;;;;;;;5.07;1.53;;;;;;;19.06;59.72;98472.38;5080446;28;20179;-66
2022/11/22 03:58:28;;;;;;;3.73;1.43;;;;;;;19.06;59.68;98478.91;5110941;28;20162;-66
2022/11/22 04:00:54;;;;;;;3.37;1.73;;;;;;;19.06;59.71;98475.25;5100141;28;20181;-66
2022/11/22 04:03:20;;;;;;;3.30;1.37;;;;;;;19.07;59.68;98468.28;5107341;28;20229;-66
2022/11/22 04:05:45;;;;;;;3.73;1.60;;;;;;;19.05;59.74;98471.56;5084967;28;20803;-66
2022/11/22 04:08:11;;;;;;;5.00;1.87;;;;;;;19.06;59.63;98475.25;5094435;28;20707;-66
2022/11/22 04:10:36;;;;;;;3.50;1.43;;;;;;;19.04;59.79;98478.53;5097716;28;20182;-66
2022/11/22 04:13:02;;;;;;;7.10;1.40;;;;;;;19.02;59.89;98475.25;5101105;28;20166;-66
2022/11/22 04:15:27;;;;;;;3.43;1.70;;;;;;;19.02;59.66;98477.34;5083402;28;20603;-66
2022/11/22 04:17:52;;;;;;;7.33;1.90;;;;;;;19.03;59.88;98478.94;5082986;28;20186;-66
2022/11/22 04:23:15;;;;;;;3.50;1.50;;;;;;;19.03;59.88;98459.75;5067616;28;20194;-66
2022/11/22 04:25:42;;;;;;;3.40;1.63;;;;;;;19.02;59.86;98480.19;5101192;28;20426;-66
2022/11/22 04:28:08;;;;;;;5.63;1.37;;;;;;;19.01;59.86;98470.78;5066842;28;20432;-66
2022/11/22 04:33:18;;;;;;;3.13;1.20;;;;;;;19.04;59.82;98455.66;5086927;28;20636;-66
2022/11/22 04:35:43;;;;;;;3.13;1.30;;;;;;;19.02;59.75;98449.53;5066812;28;20501;-66
2022/11/22 04:38:09;;;;;;;3.47;1.40;;;;;;;19.03;59.85;98454.03;5083397;28;20159;-66
2022/11/22 04:40:34;;;;;;;4.73;1.40;;;;;;;19.02;59.88;98460.97;5117709;28;20260;-66
2022/11/22 04:45:44;;;;;;;2.33;1.20;;;;;;;19.06;59.96;98464.59;5121798;28;20255;-66
2022/11/22 04:48:11;;;;;;;2.30;1.30;;;;;;;19.06;59.81;98464.59;5104548;28;20395;-66
2022/11/22 04:53:20;;;;;;;2.77;1.13;;;;;;;19.03;60.06;98465.47;5107127;28;20461;-66
2022/11/22 04:55:45;;;;;;;2.33;1.23;;;;;;;19.04;59.73;98458.50;5104294;28;20756;-66
2022/11/22 04:58:11;;;;;;;4.80;1.40;;;;;;;19.02;59.90;98458.09;5122950;28;20620;-66
2022/11/22 05:00:36;;;;;;;2.00;1.37;;;;;;;19.02;60.11;98458.09;5104263;28;20652;-66
2022/11/22 05:03:02;;;;;;;3.50;1.23;;;;;;;19.00;60.20;98459.78;5116968;28;20688;-66
2022/11/22 05:05:28;;;;;;;2.60;1.43;;;;;;;19.02;60.33;98472.41;5067226;28;20202;-66
2022/11/22 05:07:53;;;;;;;2.80;1.40;;;;;;;19.04;59.87;98472.81;5066586;28;20186;-66
2022/11/22 05:10:19;;;;;;;3.27;1.30;;;;;;;19.04;60.04;98481.38;5101181;28;20159;-66
2022/11/22 05:12:44;;;;;;;1.87;1.00;;;;;;;19.07;59.86;98482.56;5101566;28;20625;-66
2022/11/22 05:15:10;;;;;;;2.80;1.10;;;;;;;19.02;59.91;98486.69;5100966;28;20155;-66
2022/11/22 05:17:36;;;;;;;3.30;1.33;;;;;;;19.05;60.01;98491.59;5083535;28;20560;-66
2022/11/22 05:20:03;;;;;;;3.70;1.40;;;;;;;19.05;59.88;98490.75;5078028;28;20720;-66
2022/11/22 05:25:12;;;;;;;2.80;1.27;;;;;;;19.02;59.94;98497.34;5079359;28;20403;-66
2022/11/22 05:27:38;;;;;;;5.13;1.50;;;;;;;19.04;60.04;98506.31;5080007;28;20774;-66
2022/11/22 05:30:04;;;;;;;3.07;1.30;;;;;;;19.07;59.88;98506.25;5078732;28;20506;-66
2022/11/22 05:32:30;;;;;;;3.37;1.30;;;;;;;19.06;59.92;98498.13;5080499;28;20645;-66
2022/11/22 05:34:56;;;;;;;4.50;1.10;;;;;;;19.04;59.91;98501.41;5078937;28;20428;-66
2022/11/22 05:37:21;;;;;;;3.60;1.37;;;;;;;19.01;60.01;98496.53;5097271;28;20417;-66
2022/11/22 05:39:47;;;;;;;2.73;1.40;;;;;;;19.04;60.04;98500.59;5081475;28;20227;-66
2022/11/22 05:42:12;;;;;;;4.63;2.00;;;;;;;19.05;60.04;98505.06;5100410;28;20300;-66
2022/11/22 05:44:38;;;;;;;2.20;1.17;;;;;;;19.05;60.05;98505.06;5081854;28;20159;-66
2022/11/22 05:47:03;;;;;;;2.53;1.40;;;;;;;19.04;60.16;98509.16;5081869;28;20235;-66
2022/11/22 05:49:29;;;;;;;4.10;1.40;;;;;;;19.03;59.96;98516.13;5081911;28;20181;-66
2022/11/22 05:51:54;;;;;;;1.93;1.17;;;;;;;19.04;59.96;98515.72;5099812;28;20197;-66
2022/11/22 05:54:19;;;;;;;2.10;1.00;;;;;;;19.04;59.86;98518.56;5096194;28;20234;-66
2022/11/22 05:56:47;;;;;;;3.10;1.40;;;;;;;19.05;60.06;98525.06;5080369;28;20156;-66
2022/11/22 05:59:12;;;;;;;2.60;1.20;;;;;;;19.07;60.21;98528.34;5062330;28;20622;-66
2022/11/22 06:01:37;;;;;;;2.13;1.10;;;;;;;19.04;59.97;98523.47;5073551;28;20505;-66
2022/11/22 06:04:03;;;;;;;4.63;1.33;;;;;;;19.04;59.91;98526.31;5089168;28;20199;-66
2022/11/22 06:06:28;;;;;;;3.50;1.60;;;;;;;19.06;59.92;98526.72;5092837;28;20178;-66
2022/11/22 06:08:54;;;;;;;2.27;1.20;;;;;;;19.04;60.19;98534.91;5100038;28;20621;-66
2022/11/22 06:11:21;;;;;;;3.43;1.27;;;;;;;19.03;60.21;98531.25;5064729;28;20173;-66
2022/11/22 06:13:47;;;;;;;2.40;1.10;;;;;;;19.05;60.20;98543.06;5065273;28;20259;-66
2022/11/22 06:16:13;;;;;;;3.50;1.60;;;;;;;19.04;59.97;98540.63;5082188;28;20408;-66
2022/11/22 06:18:38;;;;;;;2.97;1.43;;;;;;;19.04;60.09;98540.63;5058311;28;20406;-66
2022/11/22 06:21:06;;;;;;;2.50;1.50;;;;;;;19.05;59.94;98543.06;5044287;28;20217;-66
2022/11/22 06:23:32;;;;;;;2.73;1.10;;;;;;;19.03;60.01;98536.16;5061462;28;20193;-66
2022/11/22 06:25:58;;;;;;;3.00;1.07;;;;;;;19.01;60.16;98542.28;5085159;28;20417;-66
2022/11/22 06:28:25;;;;;;;2.53;1.30;;;;;;;19.06;59.99;98546.75;5077919;28;20167;-66
2022/11/22 06:30:50;;;;;;;3.50;1.33;;;;;;;19.03;60.03;98551.28;5079338;28;20450;-66
2022/11/22 06:33:16;;;;;;;2.70;1.20;;;;;;;19.06;59.93;98556.13;5084031;28;20425;-66
2022/11/22 06:35:41;;;;;;;4.20;1.73;;;;;;;19.06;60.01;98553.25;5081152;28;20699;-66
2022/11/22 06:38:06;;;;;;;3.10;1.30;;;;;;;19.03;59.99;98550.44;5081080;28;20187;-66
2022/11/22 06:40:32;;;;;;;2.30;1.17;;;;;;;19.06;60.15;98556.13;5099006;28;20182;-66
2022/11/22 06:42:57;;;;;;;2.43;1.07;;;;;;;19.04;60.07;98569.22;5099126;28;20170;-66
2022/11/22 06:45:23;;;;;;;2.57;1.60;;;;;;;19.08;59.95;98562.25;5099170;28;20162;-66
2022/11/22 06:47:48;;;;;;;2.30;1.20;;;;;;;19.04;60.05;98570.03;5081108;28;20170;-66
2022/11/22 06:50:14;;;;;;;2.43;1.30;;;;;;;19.03;60.10;98579.88;5081057;28;20170;-66
2022/11/22 06:52:40;;;;;;;3.23;1.77;;;;;;;19.03;60.25;98573.31;5081062;28;20189;-66
2022/11/22 06:55:05;;;;;;;3.90;1.30;;;;;;;19.06;60.15;98579.00;5098983;28;20218;-66
2022/11/22 06:57:31;;;;;;;2.80;1.40;;;;;;;19.07;60.03;98583.47;5099070;28;20503;-66
2022/11/22 06:59:56;;;;;;;2.33;1.13;;;;;;;19.10;59.95;98585.50;5098346;28;20186;-66
2022/11/22 07:02:22;;;;;;;2.07;1.17;;;;;;;19.07;60.00;98594.13;5079667;28;20190;-66
2022/11/22 07:04:47;;;;;;;2.60;1.30;;;;;;;19.06;60.16;98589.66;5078990;28;20624;-66
2022/11/22 07:07:13;;;;;;;3.60;2.30;;;;;;;19.08;60.07;98596.56;5097272;28;20227;-66
2022/11/22 07:09:38;;;;;;;2.40;1.10;;;;;;;19.06;60.06;98603.94;5097431;28;20614;-66
2022/11/22 07:12:04;;;;;;;2.57;1.10;;;;;;;19.06;59.98;98607.59;5097476;28;20150;-66
2022/11/22 07:14:30;;;;;;;4.13;1.30;;;;;;;19.08;60.09;98615.75;5052712;28;20646;-66
2022/11/22 07:16:55;;;;;;;1.80;0.90;;;;;;;19.07;60.10;98608.44;5076911;28;20182;-66
2022/11/22 07:19:21;;;;;;;3.67;1.60;;;;;;;19.08;60.00;98618.63;5097236;28;20409;-66
2022/11/22 07:21:46;;;;;;;6.00;1.60;;;;;;;19.08;59.96;98615.75;5099069;28;20223;-66
2022/11/22 07:24:12;;;;;;;3.50;1.70;;;;;;;19.05;60.16;98628.88;5097628;28;20231;-66
2022/11/22 07:26:37;;;;;;;2.17;1.13;;;;;;;19.06;60.11;98619.03;5097820;28;20167;-66
2022/11/22 07:29:03;;;;;;;2.30;0.93;;;;;;;19.09;60.22;98623.94;5092832;28;20609;-66
2022/11/22 07:31:28;;;;;;;1.83;1.00;;;;;;;19.09;60.36;98629.66;5080545;28;20204;-66
2022/11/22 07:33:57;;;;;;;3.00;1.13;;;;;;;19.08;60.11;98636.59;5069496;28;20190;-66
2022/11/22 07:36:22;;;;;;;3.63;1.30;;;;;;;19.07;60.11;98637.81;5087260;28;20183;-66
2022/11/22 07:38:48;;;;;;;1.80;0.90;;;;;;;19.10;59.98;98636.97;5079679;28;20450;-66
2022/11/22 07:41:14;;;;;;;1.97;1.10;;;;;;;19.08;60.10;98650.91;5061662;28;20190;-66
2022/11/22 07:43:39;;;;;;;2.60;1.13;;;;;;;19.05;60.43;98663.19;5045455;28;20190;-66
2022/11/22 07:46:07;;;;;;;2.23;1.10;;;;;;;19.08;60.06;98668.06;5084756;28;20186;-66
2022/11/22 07:48:32;;;;;;;2.50;1.33;;;;;;;19.08;60.07;98673.78;5070220;28;20197;-66
2022/11/22 07:51:05;;;;;;;2.43;1.10;;;;;;;19.04;60.33;98678.72;5084419;28;20413;-66
2022/11/22 07:53:31;;;;;;;2.80;1.30;;;;;;;19.06;60.41;98676.25;5086916;28;20231;-66
2022/11/22 07:56:00;;;;;;;2.27;1.23;;;;;;;19.08;60.13;98679.50;5078412;28;20547;-66
2022/11/22 07:58:25;;;;;;;2.13;1.07;;;;;;;19.09;60.14;98675.41;5090989;28;20182;-66
2022/11/22 08:00:50;;;;;;;2.87;1.20;;;;;;;19.06;60.07;98681.19;5079318;28;20436;-66
2022/11/22 08:03:16;;;;;;;1.70;1.00;;;;;;;19.11;60.13;98680.72;5074767;28;20175;-66
2022/11/22 08:05:41;;;;;;;2.73;1.10;;;;;;;19.08;60.16;98676.66;5066046;28;20216;-66
2022/11/22 08:08:07;;;;;;;3.10;1.43;;;;;;;19.09;60.19;98684.00;5098041;28;20249;-66
2022/11/22 08:10:32;;;;;;;3.03;1.50;;;;;;;19.07;60.31;98677.06;5071742;28;20174;-66
2022/11/22 08:12:59;;;;;;;4.73;2.30;;;;;;;18.74;59.64;98681.47;5065404;28;20191;-66
2022/11/22 08:15:24;;;;;;;10.93;3.23;;;;;;;18.77;59.33;98680.59;5067526;28;20516;-66
2022/11/22 08:17:49;;;;;;;10.87;4.60;;;;;;;18.87;59.62;98687.47;5063169;28;20417;-67
2022/11/22 08:20:15;;;;;;;11.27;4.60;;;;;;;19.20;58.46;98686.72;5056277;28;20191;-66
2022/11/22 08:22:41;;;;;;;15.87;4.30;;;;;;;19.23;56.04;98688.78;5080348;28;20209;-66
2022/11/22 08:25:11;;;;;;;9.77;3.30;;;;;;;19.18;55.58;98689.22;5067373;28;20617;-66
2022/11/22 08:27:38;;;;;;;10.70;3.67;;;;;;;19.16;56.24;98683.91;5094149;28;20880;-66
2022/11/22 08:30:04;;;;;;;10.80;3.07;;;;;;;19.18;56.09;98678.59;5086637;28;20435;-66
2022/11/22 08:32:29;;;;;;;5.50;3.10;;;;;;;19.17;56.10;98679.81;5053730;28;20437;-66
2022/11/22 08:34:54;;;;;;;13.73;3.80;;;;;;;19.18;56.72;98677.78;5091186;28;20190;-67
2022/11/22 08:37:20;;;;;;;7.43;2.90;;;;;;;19.14;56.38;98683.53;5083502;28;20194;-68
2022/11/22 08:39:45;;;;;;;7.60;3.40;;;;;;;19.13;56.08;98679.06;5040496;28;20186;-66
2022/11/22 08:42:11;;;;;;;6.57;3.10;;;;;;;19.10;56.21;98682.75;5085605;28;20206;-67
2022/11/22 08:44:36;;;;;;;17.13;3.60;;;;;;;19.16;55.47;98675.31;5084065;28;20183;-67
2022/11/22 08:47:02;;;;;;;7.27;3.10;;;;;;;19.34;55.33;98673.13;5079184;28;20637;-67
2022/11/22 08:49:27;;;;;;;9.63;3.13;;;;;;;19.62;55.40;98667.06;5067735;28;20171;-67
2022/11/22 08:51:52;;;;;;;13.43;3.40;;;;;;;19.64;54.69;98678.91;5064726;28;20183;-66
2022/11/22 08:54:18;;;;;;;7.60;3.23;;;;;;;19.55;54.39;98669.19;5083392;28;20227;-67
2022/11/22 08:56:43;;;;;;;9.60;3.30;;;;;;;19.48;55.10;98672.97;5084923;28;20174;-67
2022/11/22 08:59:09;;;;;;;8.30;2.93;;;;;;;19.43;55.02;98679.16;5077951;28;20178;-67
2022/11/22 09:01:34;;;;;;;9.73;3.03;;;;;;;19.39;54.87;98677.56;5086090;28;20202;-67
2022/11/22 09:04:00;;;;;;;4.67;2.50;;;;;;;19.28;55.09;98671.97;5084491;28;20195;-67
2022/11/22 09:06:25;;;;;;;9.57;3.33;;;;;;;19.25;55.89;98675.69;5065032;28;20175;-67
2022/11/22 09:08:50;;;;;;;7.90;2.90;;;;;;;19.18;56.13;98667.16;5079381;28;20187;-67
2022/11/22 09:11:17;;;;;;;8.60;3.13;;;;;;;19.19;55.97;98673.66;5084959;28;20178;-66
2022/11/22 09:13:43;;;;;;;9.00;3.40;;;;;;;19.18;55.90;98675.72;5067948;28;20194;-67
2022/11/22 09:16:17;;;;;;;9.73;3.47;;;;;;;19.18;56.10;98681.47;5071842;28;20927;-67
2022/11/22 09:18:42;;;;;;;10.10;2.70;;;;;;;19.23;54.97;98669.59;5054733;28;20171;-67
2022/11/22 09:21:10;;;;;;;8.97;2.40;;;;;;;19.20;55.10;98667.53;5071996;28;21150;-67
2022/11/22 09:23:35;;;;;;;8.37;2.73;;;;;;;19.15;54.84;98668.00;5087073;28;20177;-67
2022/11/22 09:26:03;;;;;;;9.10;2.90;;;;;;;19.13;54.89;98676.19;5071496;28;20776;-67
2022/11/22 09:28:28;;;;;;;9.90;3.43;;;;;;;19.08;55.22;98673.78;5071207;28;20644;-66
2022/11/22 09:30:59;;;;;;;8.83;2.97;;;;;;;19.10;54.79;98671.31;5067805;28;20432;-66
2022/11/22 09:33:24;;;;;;;9.67;2.83;;;;;;;19.11;55.25;98672.94;5085089;28;20178;-66
2022/11/22 09:35:50;;;;;;;9.20;2.77;;;;;;;19.10;55.06;98677.03;5084147;28;20888;-67
2022/11/22 09:38:15;;;;;;;16.03;3.17;;;;;;;19.08;55.15;98685.25;5084335;28;20243;-66
2022/11/22 09:40:45;;;;;;;8.23;2.80;;;;;;;19.03;55.22;98671.41;5061278;28;20588;-67
2022/11/22 09:43:30;;;;;;;8.43;2.13;;;;;;;19.02;55.02;98666.88;5054445;28;20173;-66
2022/11/22 09:46:01;;;;;;;7.67;2.37;;;;;;;18.98;54.67;98660.41;5079187;28;20413;-64
2022/11/22 09:48:35;;;;;;;8.67;2.73;;;;;;;18.95;54.80;98658.38;5060189;28;20515;-64
2022/11/22 09:51:15;;;;;;;11.30;3.53;;;;;;;18.95;54.29;98660.41;5063513;28;20913;-64
2022/11/22 09:53:45;;;;;;;14.43;2.60;;;;;;;19.02;54.69;98657.50;5075231;28;20562;-64
2022/11/22 09:56:12;;;;;;;13.77;2.50;;;;;;;19.04;54.21;98657.88;5079223;28;20477;-65
2022/11/22 09:58:50;;;;;;;12.47;3.63;;;;;;;19.05;54.99;98657.47;5077301;28;20458;-64
2022/11/22 10:01:39;;;;;;;14.17;2.70;;;;;;;19.09;55.63;98663.97;5062526;28;20451;-64
2022/11/22 10:04:05;;;;;;;10.23;3.13;;;;;;;19.12;56.47;98665.16;5065980;28;20789;-65
2022/11/22 10:06:35;;;;;;;11.37;3.30;;;;;;;19.07;57.36;98660.69;5090365;28;20425;-64
2022/11/22 10:09:31;;;;;;;18.37;4.40;;;;;;;19.19;57.09;98657.31;5075055;28;20186;-64
2022/11/22 10:12:02;;;;;;;13.20;3.27;;;;;;;19.24;57.00;98650.34;5084299;28;20508;-64
2022/11/22 10:14:28;;;;;;;10.23;3.00;;;;;;;19.24;57.16;98653.22;5080634;28;21369;-64
2022/11/22 10:17:13;;;;;;;9.50;2.47;;;;;;;19.20;57.18;98656.09;5084664;28;20423;-64
2022/11/22 10:19:49;;;;;;;13.73;3.40;;;;;;;19.21;57.26;98657.69;5045276;28;20179;-64
2022/11/22 10:22:15;;;;;;;11.83;2.47;;;;;;;19.22;57.56;98653.63;5063212;28;20544;-64
2022/11/22 10:24:41;;;;;;;8.90;2.67;;;;;;;19.21;57.58;98654.84;5056557;28;20478;-64
2022/11/22 10:27:13;;;;;;;10.67;2.77;;;;;;;19.18;57.80;98652.03;5043388;28;20183;-64
2022/11/22 10:29:55;;;;;;;8.93;2.50;;;;;;;19.19;57.67;98651.59;5062283;28;20186;-64
2022/11/22 10:32:21;;;;;;;22.87;3.30;;;;;;;19.19;57.81;98640.16;5059009;28;20460;-64
2022/11/22 10:35:05;;;;;;;13.83;2.83;;;;;;;19.21;57.76;98649.13;5077630;28;20490;-64
2022/11/22 10:37:40;;;;;;;9.50;3.00;;;;;;;19.23;58.05;98654.44;5062193;28;20181;-64
2022/11/22 10:40:25;;;;;;;10.20;2.87;;;;;;;19.24;58.04;98659.75;5062859;28;20477;-64
2022/11/22 10:43:03;;;;;;;14.27;3.40;;;;;;;19.24;58.13;98656.06;5062728;28;20421;-65
2022/11/22 10:45:41;;;;;;;9.20;2.80;;;;;;;19.19;58.06;98657.31;5059150;28;20412;-64
2022/11/22 10:48:21;;;;;;;8.63;2.63;;;;;;;19.20;58.18;98658.13;5047606;28;20876;-64
2022/11/22 10:51:04;;;;;;;8.20;2.87;;;;;;;19.21;58.17;98651.19;5059961;28;20463;-64
2022/11/22 10:53:37;;;;;;;12.80;2.80;;;;;;;19.20;58.29;98652.41;5060947;28;20471;-64
2022/11/22 10:56:03;;;;;;;8.60;2.37;;;;;;;19.19;58.95;98656.50;5079775;28;20447;-64
2022/11/22 10:58:53;;;;;;;11.07;2.60;;;;;;;19.19;58.65;98651.59;5076124;28;20422;-64
2022/11/22 11:01:34;;;;;;;9.07;2.63;;;;;;;19.21;58.49;98656.91;5060663;28;20202;-64
2022/11/22 11:04:00;;;;;;;10.57;2.60;;;;;;;19.20;58.56;98650.38;5058773;28;20464;-64
2022/11/22 11:06:26;;;;;;;7.80;2.33;;;;;;;19.20;58.38;98658.94;5075175;28;20442;-64
2022/11/22 11:08:54;;;;;;;10.73;2.90;;;;;;;19.21;58.35;98643.41;5080086;28;20258;-64
2022/11/22 11:11:20;;;;;;;9.40;2.60;;;;;;;19.22;58.54;98645.03;5040644;28;20486;-64
2022/11/22 11:13:50;;;;;;;9.37;2.90;;;;;;;19.20;58.89;98650.38;5063116;28;20416;-64
2022/11/22 11:16:18;;;;;;;7.33;2.43;;;;;;;19.21;58.91;98645.47;5055497;28;20179;-65
2022/11/22 11:18:47;;;;;;;6.83;2.40;;;;;;;19.21;58.67;98649.13;5058765;28;20982;-65
2022/11/22 11:21:13;;;;;;;6.90;2.27;;;;;;;19.20;58.76;98641.78;5078670;28;20457;-64
2022/11/22 11:23:38;;;;;;;9.03;2.50;;;;;;;19.20;58.74;98650.38;5073721;28;20433;-64
2022/11/22 11:26:24;;;;;;;8.07;2.60;;;;;;;19.21;58.66;98646.25;5059036;28;20178;-64
2022/11/22 11:28:50;;;;;;;6.60;2.20;;;;;;;19.17;59.03;98639.75;5082593;28;20185;-64
2022/11/22 11:31:17;;;;;;;5.73;2.10;;;;;;;19.18;59.02;98632.81;5079938;28;20417;-64
2022/11/22 11:33:44;;;;;;;5.90;2.37;;;;;;;19.21;58.98;98643.41;5074342;28;20418;-63
2022/11/22 11:36:30;;;;;;;9.07;3.20;;;;;;;19.19;58.94;98634.44;5081360;28;20524;-64
2022/11/22 11:38:56;;;;;;;7.07;2.23;;;;;;;19.23;58.85;98634.44;5076571;28;20500;-64
2022/11/22 11:41:31;;;;;;;11.53;2.27;;;;;;;19.18;59.02;98643.44;5077940;28;20497;-64
2022/11/22 11:44:02;;;;;;;13.10;2.63;;;;;;;19.14;58.85;98631.22;5074160;28;20428;-64
2022/11/22 11:46:40;;;;;;;16.47;3.63;;;;;;;19.11;56.96;98632.09;5056999;28;20780;-64